Time;durP1;ratioP1;P1;durP2;ratioP2;P2;SDS_P1;SDS_P2;PMS_P1;PMS_P2;Temp;Humidity;BMP_temperature;BMP_pressure;BME280_temperature;BME280_humidity;BME280_pressure;Samples;Min_cycle;Max_cycle;Signal;HPM_P1;HPM_P2
2022/03/26 00:02:10;;;;;;;58.85;34.42;;;19.10;57.80;;;;;;4994706;28;20601;-11
2022/03/26 00:04:36;;;;;;;56.45;34.13;;;19.10;57.80;;;;;;4996211;28;20027;-12
2022/03/26 00:07:02;;;;;;;56.08;34.88;;;19.10;57.90;;;;;;4996120;28;20133;-11
2022/03/26 00:09:27;;;;;;;55.65;33.05;;;19.10;57.90;;;;;;4997659;28;20419;-11
2022/03/26 00:11:53;;;;;;;52.47;31.60;;;19.10;57.80;;;;;;4988827;28;20055;-11
2022/03/26 00:14:18;;;;;;;53.38;32.22;;;19.00;57.90;;;;;;4989686;28;20389;-12
2022/03/26 00:16:44;;;;;;;50.80;30.50;;;19.00;57.90;;;;;;4991419;28;20125;-11
2022/03/26 00:19:10;;;;;;;52.97;32.85;;;19.00;58.00;;;;;;4994194;28;20613;-12
2022/03/26 00:21:35;;;;;;;55.17;32.50;;;19.10;58.10;;;;;;4993856;28;20043;-12
2022/03/26 00:24:01;;;;;;;57.05;33.72;;;19.10;58.00;;;;;;4991939;28;20570;-13
2022/03/26 00:26:26;;;;;;;54.08;31.73;;;19.00;58.10;;;;;;4992185;28;20117;-11
2022/03/26 00:28:52;;;;;;;48.17;31.67;;;19.00;58.10;;;;;;4993223;28;20057;-12
2022/03/26 00:31:17;;;;;;;49.35;31.02;;;19.00;58.10;;;;;;4989726;28;20518;-12
2022/03/26 00:33:43;;;;;;;47.63;28.98;;;19.00;58.10;;;;;;4992361;28;20058;-12
2022/03/26 00:36:09;;;;;;;50.08;29.00;;;19.00;58.10;;;;;;4995300;28;20128;-13
2022/03/26 00:38:34;;;;;;;47.10;30.52;;;19.00;58.10;;;;;;4992920;28;20046;-12
2022/03/26 00:41:00;;;;;;;46.45;29.05;;;19.00;58.20;;;;;;4995292;28;20061;-12
2022/03/26 00:43:26;;;;;;;48.33;28.40;;;19.00;58.20;;;;;;4994282;28;20157;-11
2022/03/26 00:45:51;;;;;;;47.15;30.15;;;19.00;58.10;;;;;;4990937;28;20499;-11
2022/03/26 00:48:17;;;;;;;45.33;28.75;;;19.00;58.20;;;;;;4993001;28;20065;-12
2022/03/26 00:50:43;;;;;;;46.05;29.23;;;19.00;58.10;;;;;;4994767;28;20052;-11
2022/03/26 00:53:08;;;;;;;46.33;28.48;;;18.90;58.10;;;;;;4992717;28;20048;-12
2022/03/26 00:55:34;;;;;;;43.55;27.98;;;18.90;58.20;;;;;;4991379;28;20077;-12
2022/03/26 00:58:00;;;;;;;47.55;29.30;;;18.90;58.10;;;;;;4995158;28;20057;-11
2022/03/26 01:00:27;;;;;;;43.85;27.77;;;18.90;58.10;;;;;;4990309;28;20570;-11
2022/03/26 01:02:52;;;;;;;42.92;27.15;;;18.90;58.10;;;;;;4995034;28;20043;-12
2022/03/26 01:05:18;;;;;;;42.75;28.05;;;18.90;58.10;;;;;;4996231;28;20057;-11
2022/03/26 01:07:44;;;;;;;41.72;26.73;;;18.90;58.10;;;;;;4990857;28;20140;-12
2022/03/26 01:10:09;;;;;;;44.88;28.35;;;18.90;58.10;;;;;;4994296;28;20046;-13
2022/03/26 01:12:35;;;;;;;41.30;27.17;;;18.90;58.10;;;;;;4988266;28;20050;-12
2022/03/26 01:15:01;;;;;;;41.13;27.40;;;18.90;58.10;;;;;;4992968;28;20484;-11
2022/03/26 01:17:27;;;;;;;42.15;26.17;;;18.90;58.10;;;;;;4995724;28;20097;-11
2022/03/26 01:19:54;;;;;;;40.30;24.95;;;18.90;58.10;;;;;;4994465;28;20050;-12
2022/03/26 01:22:20;;;;;;;40.72;25.02;;;18.90;58.10;;;;;;4991618;28;20062;-12
2022/03/26 01:24:45;;;;;;;38.20;25.02;;;18.90;58.10;;;;;;4988096;28;20053;-11
2022/03/26 01:27:11;;;;;;;40.72;24.23;;;18.90;58.10;;;;;;4989375;28;20065;-11
2022/03/26 01:29:38;;;;;;;34.30;23.38;;;18.90;58.20;;;;;;4995536;28;20053;-12
2022/03/26 01:32:06;;;;;;;36.90;23.60;;;18.90;58.20;;;;;;4993999;28;20058;-12
2022/03/26 01:34:32;;;;;;;36.97;23.90;;;18.90;58.10;;;;;;4994420;28;20133;-12
2022/03/26 01:36:58;;;;;;;36.13;23.63;;;18.90;58.20;;;;;;4993486;28;20115;-12
2022/03/26 01:39:23;;;;;;;34.85;22.90;;;18.90;58.20;;;;;;4995292;28;20791;-11
2022/03/26 01:41:49;;;;;;;33.45;21.90;;;18.90;58.20;;;;;;4992884;28;20049;-12
2022/03/26 01:44:15;;;;;;;33.30;22.20;;;18.90;58.20;;;;;;4993842;28;20190;-11
2022/03/26 01:46:48;;;;;;;33.50;22.05;;;18.90;58.20;;;;;;4993082;28;20192;-12
2022/03/26 01:49:14;;;;;;;34.53;22.92;;;18.90;58.30;;;;;;4992380;28;20120;-12
2022/03/26 01:51:40;;;;;;;32.25;21.20;;;18.90;59.00;;;;;;4994724;28;20089;-11
2022/03/26 01:54:05;;;;;;;31.27;20.55;;;18.80;58.30;;;;;;4994208;28;20046;-12
2022/03/26 01:56:31;;;;;;;30.60;20.30;;;18.80;58.40;;;;;;4995454;28;20042;-12
2022/03/26 01:58:56;;;;;;;36.38;22.63;;;18.80;58.40;;;;;;4993539;28;20050;-13
2022/03/26 02:01:22;;;;;;;31.40;20.48;;;18.80;58.40;;;;;;4992773;28;20050;-12
2022/03/26 02:03:47;;;;;;;28.42;20.23;;;18.80;58.40;;;;;;4993684;28;20085;-13
2022/03/26 02:06:13;;;;;;;32.00;21.80;;;18.80;58.40;;;;;;4994125;28;20042;-11
2022/03/26 02:08:39;;;;;;;30.40;19.55;;;18.80;58.40;;;;;;4994557;28;20073;-13
2022/03/26 02:11:04;;;;;;;29.85;19.70;;;18.80;58.40;;;;;;4990614;28;20053;-12
2022/03/26 02:13:49;;;;;;;29.85;21.05;;;18.80;58.40;;;;;;4994983;28;20050;-11
2022/03/26 02:16:15;;;;;;;29.88;19.95;;;18.80;58.40;;;;;;4987050;28;20038;-11
2022/03/26 02:18:40;;;;;;;29.08;19.88;;;18.80;58.40;;;;;;4994346;28;20049;-14
2022/03/26 02:21:06;;;;;;;28.20;19.20;;;18.80;58.30;;;;;;4990773;28;20132;-12
2022/03/26 02:23:31;;;;;;;28.33;19.85;;;18.80;58.30;;;;;;4995317;28;20052;-12
2022/03/26 02:25:57;;;;;;;28.55;19.05;;;18.80;58.30;;;;;;4993405;28;20050;-11
2022/03/26 02:28:23;;;;;;;27.70;18.85;;;18.80;58.40;;;;;;4993746;28;20070;-11
2022/03/26 02:30:48;;;;;;;27.77;19.13;;;18.80;58.40;;;;;;4991702;28;20045;-11
2022/03/26 02:33:14;;;;;;;25.25;18.02;;;18.80;58.40;;;;;;4992366;28;20042;-11
2022/03/26 02:35:39;;;;;;;24.98;18.02;;;18.70;58.30;;;;;;4993755;28;20406;-11
2022/03/26 02:38:05;;;;;;;25.05;17.92;;;18.70;58.30;;;;;;4991194;28;20050;-12
2022/03/26 02:40:30;;;;;;;24.13;17.50;;;18.80;58.40;;;;;;4993708;28;20478;-12
2022/03/26 02:42:56;;;;;;;24.08;17.13;;;18.70;58.30;;;;;;4993279;28;20046;-11
2022/03/26 02:45:22;;;;;;;24.40;17.70;;;18.80;58.30;;;;;;4993503;28;20046;-12
2022/03/26 02:47:48;;;;;;;24.95;17.50;;;18.70;58.20;;;;;;4992988;28;20057;-11
2022/03/26 02:50:14;;;;;;;25.45;17.20;;;18.70;58.20;;;;;;4993420;28;20559;-11
2022/03/26 02:52:40;;;;;;;25.83;17.65;;;18.80;58.20;;;;;;4993504;28;20436;-11
2022/03/26 02:55:08;;;;;;;25.30;17.52;;;18.70;58.20;;;;;;4991841;28;20047;-11
2022/03/26 02:57:33;;;;;;;23.08;16.27;;;18.70;58.30;;;;;;4992458;28;20125;-12
2022/03/26 02:59:59;;;;;;;24.58;16.05;;;18.70;58.30;;;;;;4992914;28;20097;-11
2022/03/26 03:02:24;;;;;;;25.98;16.88;;;18.70;58.30;;;;;;4993151;28;20443;-11
2022/03/26 03:04:50;;;;;;;19.27;15.45;;;18.70;58.20;;;;;;4993057;28;20042;-13
2022/03/26 03:07:15;;;;;;;21.55;15.05;;;18.70;58.20;;;;;;4992806;28;20093;-11
2022/03/26 03:09:41;;;;;;;23.00;16.13;;;18.70;58.20;;;;;;4993865;28;20065;-11
2022/03/26 03:12:08;;;;;;;23.60;16.73;;;18.70;58.20;;;;;;4991023;28;20046;-11
2022/03/26 03:14:37;;;;;;;19.80;15.30;;;18.70;58.20;;;;;;4992520;28;20042;-11
2022/03/26 03:17:03;;;;;;;20.23;15.95;;;18.70;58.20;;;;;;4992066;28;20523;-13
2022/03/26 03:19:28;;;;;;;22.30;15.07;;;18.70;58.20;;;;;;4993508;28;20446;-12
2022/03/26 03:21:54;;;;;;;20.70;15.57;;;18.70;58.30;;;;;;4991658;28;20046;-12
2022/03/26 03:24:21;;;;;;;18.20;15.00;;;18.70;58.20;;;;;;4991381;28;20050;-11
2022/03/26 03:26:47;;;;;;;22.23;15.70;;;18.70;58.30;;;;;;4995926;28;20104;-11
2022/03/26 03:29:13;;;;;;;21.02;16.27;;;18.70;58.30;;;;;;4996037;28;20057;-12
2022/03/26 03:31:44;;;;;;;18.90;14.70;;;18.70;58.30;;;;;;4997582;28;20487;-11
2022/03/26 03:34:10;;;;;;;18.95;14.32;;;18.70;58.30;;;;;;4996537;28;20137;-12
2022/03/26 03:36:35;;;;;;;22.08;14.50;;;18.70;58.30;;;;;;4996552;28;20054;-12
2022/03/26 03:39:01;;;;;;;19.10;14.57;;;18.70;58.30;;;;;;4990643;28;20050;-11
2022/03/26 03:41:27;;;;;;;18.60;14.35;;;18.70;58.30;;;;;;4997206;28;20085;-12
2022/03/26 03:43:52;;;;;;;18.92;14.30;;;18.70;58.20;;;;;;4995792;28;20104;-12
2022/03/26 03:46:18;;;;;;;18.65;13.48;;;18.70;58.20;;;;;;4997594;28;20042;-12
2022/03/26 03:48:43;;;;;;;18.65;13.55;;;18.70;58.20;;;;;;4996592;28;20396;-11
2022/03/26 03:51:09;;;;;;;17.05;13.10;;;18.70;58.30;;;;;;4992583;28;20054;-11
2022/03/26 03:53:35;;;;;;;17.88;13.23;;;18.70;58.30;;;;;;4985711;28;20078;-11
2022/03/26 03:56:00;;;;;;;16.65;12.75;;;18.70;58.20;;;;;;4996915;28;20568;-12
2022/03/26 03:58:26;;;;;;;16.02;12.25;;;18.70;58.20;;;;;;4988973;28;20057;-12
2022/03/26 04:00:51;;;;;;;16.58;12.45;;;18.70;58.20;;;;;;4980042;28;20038;-12
2022/03/26 04:03:17;;;;;;;15.27;12.57;;;18.70;58.20;;;;;;4995389;28;20049;-11
2022/03/26 04:05:43;;;;;;;16.75;12.75;;;18.70;58.20;;;;;;4995331;28;20385;-12
2022/03/26 04:08:08;;;;;;;15.95;12.38;;;18.70;58.20;;;;;;4995843;28;20057;-11
2022/03/26 04:10:34;;;;;;;15.73;12.10;;;18.60;58.30;;;;;;4997220;28;20045;-11
2022/03/26 04:13:00;;;;;;;15.32;12.23;;;18.60;58.20;;;;;;4996338;28;20042;-11
2022/03/26 04:15:25;;;;;;;17.67;12.68;;;18.70;58.30;;;;;;4996614;28;20049;-11
2022/03/26 04:17:54;;;;;;;13.25;11.02;;;18.60;58.30;;;;;;4988393;28;20186;-12
2022/03/26 04:20:20;;;;;;;13.35;10.65;;;18.60;58.30;;;;;;4996521;28;20054;-12
2022/03/26 04:22:46;;;;;;;16.08;12.02;;;18.60;58.30;;;;;;4986203;28;20042;-12
2022/03/26 04:25:11;;;;;;;13.95;11.05;;;18.60;58.20;;;;;;4977172;28;21388;-13
2022/03/26 04:27:43;;;;;;;15.75;11.50;;;18.60;58.30;;;;;;4996653;28;20070;-12
2022/03/26 04:30:09;;;;;;;13.80;11.43;;;18.60;58.30;;;;;;4994548;28;20073;-12
2022/03/26 04:32:35;;;;;;;12.82;10.50;;;18.60;58.30;;;;;;4995496;28;20096;-12
2022/03/26 04:35:00;;;;;;;13.45;10.27;;;18.60;58.20;;;;;;4994914;28;20042;-11
2022/03/26 04:37:26;;;;;;;15.18;11.15;;;18.60;58.30;;;;;;4986607;28;20049;-12
2022/03/26 04:39:51;;;;;;;12.65;10.45;;;18.60;58.30;;;;;;4976609;28;20043;-11
2022/03/26 04:42:17;;;;;;;12.88;11.18;;;18.60;58.30;;;;;;4981467;28;20042;-12
2022/03/26 04:44:43;;;;;;;13.48;10.13;;;18.60;58.30;;;;;;4981928;28;20492;-11
2022/03/26 04:47:08;;;;;;;15.00;10.82;;;18.60;58.30;;;;;;4976811;28;20070;-11
2022/03/26 04:49:34;;;;;;;12.38;10.57;;;18.60;58.20;;;;;;4991236;28;20085;-11
2022/03/26 04:51:59;;;;;;;13.02;9.95;;;18.60;58.30;;;;;;4995018;28;20042;-12
2022/03/26 04:54:25;;;;;;;12.63;10.40;;;18.60;58.30;;;;;;4994071;28;20054;-11
2022/03/26 04:56:51;;;;;;;12.57;9.48;;;18.60;58.30;;;;;;4992092;28;20045;-12
2022/03/26 04:59:16;;;;;;;13.02;9.50;;;18.60;58.30;;;;;;4977719;28;20101;-11
2022/03/26 05:01:44;;;;;;;12.40;9.65;;;18.60;58.30;;;;;;4990642;28;20038;-11
2022/03/26 05:04:13;;;;;;;11.80;8.98;;;18.60;58.20;;;;;;4992671;28;20108;-11
2022/03/26 05:06:39;;;;;;;11.65;10.02;;;18.60;58.50;;;;;;4995843;28;20053;-11
2022/03/26 05:09:05;;;;;;;14.43;9.95;;;18.60;58.30;;;;;;4994582;28;20042;-11
2022/03/26 05:11:30;;;;;;;11.45;9.82;;;18.60;58.30;;;;;;4991083;28;20046;-12
2022/03/26 05:13:57;;;;;;;10.82;9.43;;;18.60;58.30;;;;;;4995404;28;20054;-11
2022/03/26 05:16:23;;;;;;;10.52;9.43;;;18.60;58.30;;;;;;4995553;28;20050;-12
2022/03/26 05:18:48;;;;;;;10.25;9.20;;;18.60;58.30;;;;;;4994486;28;20110;-12
2022/03/26 05:21:14;;;;;;;10.00;8.90;;;18.60;58.30;;;;;;4992072;28;20410;-11
2022/03/26 05:23:39;;;;;;;10.25;8.43;;;18.60;58.30;;;;;;4995121;28;20050;-12
2022/03/26 05:26:05;;;;;;;10.25;9.23;;;18.50;58.30;;;;;;4994874;28;20129;-11
2022/03/26 05:28:31;;;;;;;9.70;8.68;;;18.50;58.40;;;;;;4992462;28;20047;-12
2022/03/26 05:30:56;;;;;;;10.25;8.18;;;18.50;58.30;;;;;;4975740;28;20082;-11
2022/03/26 05:33:22;;;;;;;9.90;8.50;;;18.50;58.30;;;;;;4985396;28;20046;-12
2022/03/26 05:35:48;;;;;;;10.60;9.52;;;18.50;58.30;;;;;;4985377;28;20058;-11
2022/03/26 05:38:13;;;;;;;9.68;8.70;;;18.50;58.40;;;;;;4988362;28;20082;-11
2022/03/26 05:40:39;;;;;;;9.40;8.40;;;18.50;58.30;;;;;;4994861;28;20050;-11
2022/03/26 05:43:04;;;;;;;10.10;9.05;;;18.50;58.20;;;;;;4994396;28;20055;-12
2022/03/26 05:45:30;;;;;;;9.85;8.85;;;18.50;58.30;;;;;;4992754;28;20059;-12
2022/03/26 05:47:57;;;;;;;9.07;8.18;;;18.50;58.20;;;;;;4991119;28;20053;-12
2022/03/26 05:50:22;;;;;;;9.18;8.27;;;18.50;58.20;;;;;;4994362;28;20134;-11
2022/03/26 05:52:49;;;;;;;8.80;7.95;;;18.60;58.20;;;;;;4993414;28;20066;-12
2022/03/26 05:55:16;;;;;;;8.82;8.00;;;18.50;58.20;;;;;;4995109;28;20050;-11
2022/03/26 05:57:42;;;;;;;9.38;8.48;;;18.50;58.20;;;;;;4999402;28;20074;-11
2022/03/26 06:00:08;;;;;;;9.73;8.63;;;18.50;58.20;;;;;;4993565;28;20049;-12
2022/03/26 06:02:34;;;;;;;9.68;8.25;;;18.50;58.10;;;;;;4998892;28;20093;-11
2022/03/26 06:05:00;;;;;;;8.38;7.57;;;18.50;58.10;;;;;;4998675;28;20515;-11
2022/03/26 06:07:26;;;;;;;11.20;8.70;;;18.50;58.00;;;;;;4998556;28;20038;-11
2022/03/26 06:09:51;;;;;;;10.40;9.00;;;18.60;58.00;;;;;;4998075;28;20068;-12
2022/03/26 06:12:17;;;;;;;8.40;7.57;;;18.50;58.30;;;;;;4998853;28;20042;-11
2022/03/26 06:14:43;;;;;;;8.70;7.82;;;18.50;58.20;;;;;;4998382;28;20487;-11
2022/03/26 06:17:08;;;;;;;8.50;7.70;;;18.40;58.20;;;;;;4997197;28;20050;-11
2022/03/26 06:19:34;;;;;;;9.02;8.02;;;18.40;58.20;;;;;;4998698;28;20137;-12
2022/03/26 06:21:59;;;;;;;8.10;7.32;;;18.50;58.30;;;;;;4998310;28;20057;-11
2022/03/26 06:24:25;;;;;;;9.27;8.07;;;18.50;58.30;;;;;;4998378;28;20491;-11
2022/03/26 06:26:51;;;;;;;8.10;7.20;;;18.50;58.30;;;;;;4996703;28;20073;-11
2022/03/26 06:29:16;;;;;;;8.75;7.85;;;18.50;58.10;;;;;;4984192;28;20108;-12
2022/03/26 06:31:42;;;;;;;8.95;8.05;;;18.50;58.10;;;;;;4990365;28;20050;-11
2022/03/26 06:34:08;;;;;;;7.72;7.03;;;18.50;58.20;;;;;;4996717;28;20317;-11
2022/03/26 06:36:34;;;;;;;8.98;7.93;;;18.50;58.20;;;;;;4998558;28;20042;-11
2022/03/26 06:39:01;;;;;;;8.30;7.38;;;18.50;58.20;;;;;;4994772;28;20058;-13
2022/03/26 06:41:26;;;;;;;8.13;7.32;;;18.50;58.00;;;;;;4983167;28;20495;-11
2022/03/26 06:43:52;;;;;;;8.20;7.40;;;18.40;58.10;;;;;;4986246;28;21048;-12
2022/03/26 06:46:17;;;;;;;7.63;6.95;;;18.40;58.20;;;;;;4990215;28;20038;-13
2022/03/26 06:48:43;;;;;;;8.10;7.30;;;18.40;58.20;;;;;;4993437;28;20173;-11
2022/03/26 06:51:09;;;;;;;7.38;6.60;;;18.50;58.40;;;;;;4984727;28;20039;-11
2022/03/26 06:53:34;;;;;;;6.75;6.00;;;18.50;58.90;;;;;;4987665;28;20041;-12
2022/03/26 06:56:00;;;;;;;7.40;6.72;;;18.40;58.30;;;;;;4983461;28;20063;-12
2022/03/26 06:58:26;;;;;;;7.07;6.47;;;18.50;58.30;;;;;;4988555;28;20058;-11
2022/03/26 07:00:52;;;;;;;7.18;6.57;;;18.50;58.30;;;;;;4988634;28;20038;-12
2022/03/26 07:03:18;;;;;;;7.25;6.65;;;18.50;58.80;;;;;;4986332;28;20039;-11
2022/03/26 07:05:43;;;;;;;8.15;7.45;;;18.40;58.10;;;;;;4994435;28;20158;-11
2022/03/26 07:08:11;;;;;;;7.90;7.18;;;18.50;58.10;;;;;;4989138;28;20054;-11
2022/03/26 07:10:37;;;;;;;7.78;7.07;;;18.40;58.20;;;;;;4991268;28;20053;-11
2022/03/26 07:13:03;;;;;;;7.07;6.47;;;18.40;58.30;;;;;;4991135;28;20043;-11
2022/03/26 07:15:31;;;;;;;6.82;6.22;;;18.40;58.20;;;;;;4988515;28;20117;-11
2022/03/26 07:17:57;;;;;;;7.30;6.70;;;18.40;58.20;;;;;;4644247;28;9999916;-11
2022/03/26 07:20:23;;;;;;;7.35;6.65;;;18.40;58.20;;;;;;4990910;28;20054;-11
2022/03/26 07:22:48;;;;;;;6.30;5.80;;;18.40;58.20;;;;;;4991872;28;20035;-11
2022/03/26 07:25:14;;;;;;;6.97;6.28;;;18.50;58.10;;;;;;4991615;28;20704;-11
2022/03/26 07:27:40;;;;;;;6.20;5.75;;;18.50;58.20;;;;;;4991142;28;20049;-11
2022/03/26 07:30:06;;;;;;;7.38;6.00;;;18.50;58.20;;;;;;4990044;28;20046;-11
2022/03/26 07:32:31;;;;;;;7.05;6.45;;;18.50;58.20;;;;;;4993058;28;20045;-12
2022/03/26 07:34:57;;;;;;;7.05;6.38;;;18.50;58.20;;;;;;4991598;28;20050;-12
2022/03/26 07:37:23;;;;;;;6.32;5.82;;;18.50;58.20;;;;;;4995049;28;20049;-12
2022/03/26 07:39:48;;;;;;;7.32;6.68;;;18.50;58.20;;;;;;4994994;28;20138;-12
2022/03/26 07:42:14;;;;;;;7.57;6.00;;;18.50;58.20;;;;;;5000961;28;20042;-11
2022/03/26 07:44:39;;;;;;;6.18;5.57;;;18.50;58.20;;;;;;4992206;28;20038;-11
2022/03/26 07:47:05;;;;;;;6.18;5.60;;;18.50;58.30;;;;;;4991227;28;20031;-12
2022/03/26 07:49:31;;;;;;;6.38;5.80;;;18.50;58.30;;;;;;4993375;28;20069;-12
2022/03/26 07:51:57;;;;;;;5.85;5.35;;;18.50;58.20;;;;;;4993713;28;20137;-11
2022/03/26 07:54:23;;;;;;;6.10;5.57;;;18.50;58.00;;;;;;4989571;28;20160;-11
2022/03/26 07:56:48;;;;;;;5.93;5.43;;;18.50;58.10;;;;;;5006870;28;20703;-12
2022/03/26 07:59:14;;;;;;;6.68;6.07;;;18.60;58.10;;;;;;4986391;28;20053;-12
2022/03/26 08:01:40;;;;;;;6.22;5.72;;;18.60;58.10;;;;;;4992730;28;20451;-13
2022/03/26 08:04:05;;;;;;;6.05;5.45;;;18.60;58.10;;;;;;4994632;28;20046;-11
2022/03/26 08:06:31;;;;;;;6.60;5.97;;;18.60;58.00;;;;;;4992670;28;20503;-12
2022/03/26 08:08:56;;;;;;;6.50;5.63;;;18.70;57.90;;;;;;4996369;28;20113;-12
2022/03/26 08:11:22;;;;;;;6.53;6.03;;;18.60;58.00;;;;;;4995073;28;20057;-12
2022/03/26 08:13:48;;;;;;;5.80;5.40;;;18.60;58.10;;;;;;4996468;28;20502;-13
2022/03/26 08:16:13;;;;;;;6.82;6.20;;;18.60;58.10;;;;;;4994577;28;20480;-11
2022/03/26 08:18:40;;;;;;;6.78;6.18;;;18.60;58.10;;;;;;4995789;28;20066;-11
2022/03/26 08:21:06;;;;;;;5.70;5.20;;;18.60;58.20;;;;;;4992763;28;20116;-12
2022/03/26 08:23:31;;;;;;;5.78;5.30;;;18.50;58.30;;;;;;4992556;28;20050;-12
2022/03/26 08:28:41;;;;;;;6.38;5.88;;;18.60;58.20;;;;;;4992908;28;20053;-11
2022/03/26 08:31:10;;;;;;;6.55;5.95;;;18.60;58.30;;;;;;4992134;28;20054;-12
2022/03/26 08:33:36;;;;;;;5.68;5.18;;;18.60;58.30;;;;;;4991396;28;20069;-12
2022/03/26 08:36:02;;;;;;;5.55;5.15;;;18.60;58.30;;;;;;4992897;28;20080;-12
2022/03/26 08:38:28;;;;;;;5.80;5.40;;;18.60;58.20;;;;;;4991167;28;20042;-11
2022/03/26 08:40:53;;;;;;;6.65;6.07;;;18.60;58.30;;;;;;4991213;28;20034;-11
2022/03/26 08:43:19;;;;;;;5.63;5.20;;;18.60;58.20;;;;;;4993923;28;20431;-11
2022/03/26 08:45:45;;;;;;;9.07;5.20;;;18.60;58.30;;;;;;4989091;28;20221;-12
2022/03/26 08:48:11;;;;;;;6.75;5.78;;;18.60;58.20;;;;;;4640887;28;10000114;-13
2022/03/26 08:50:36;;;;;;;8.88;5.15;;;18.60;58.30;;;;;;4987018;28;20120;-12
2022/03/26 08:53:02;;;;;;;5.20;4.90;;;18.60;58.30;;;;;;4990406;28;20049;-13
2022/03/26 08:55:28;;;;;;;5.65;5.25;;;18.60;58.40;;;;;;4993394;28;20053;-12
2022/03/26 08:57:53;;;;;;;5.50;5.20;;;18.70;58.40;;;;;;4995223;28;20181;-13
2022/03/26 09:00:20;;;;;;;6.18;5.68;;;18.70;58.40;;;;;;4984088;28;20050;-11
2022/03/26 09:02:45;;;;;;;5.70;5.30;;;18.70;58.10;;;;;;4991269;28;20424;-13
2022/03/26 09:05:13;;;;;;;5.35;4.90;;;18.80;58.30;;;;;;4992548;28;20145;-11
2022/03/26 09:07:39;;;;;;;5.63;5.22;;;18.80;58.40;;;;;;4991090;28;20058;-12
2022/03/26 09:10:05;;;;;;;5.72;5.13;;;18.90;58.70;;;;;;4989822;28;20046;-12
2022/03/26 09:12:30;;;;;;;5.53;5.18;;;18.90;59.20;;;;;;4994261;28;21098;-13
2022/03/26 09:14:56;;;;;;;5.63;5.13;;;18.90;58.70;;;;;;4995432;28;20043;-15
2022/03/26 09:17:22;;;;;;;6.40;4.80;;;18.90;58.50;;;;;;4977266;28;20049;-15
2022/03/26 09:19:47;;;;;;;5.22;4.82;;;19.00;58.40;;;;;;4978330;28;20762;-17
2022/03/26 09:22:13;;;;;;;5.40;4.97;;;19.00;58.30;;;;;;4979139;28;20130;-14
2022/03/26 09:24:38;;;;;;;5.57;5.18;;;19.10;58.40;;;;;;4979592;28;20046;-13
2022/03/26 09:27:04;;;;;;;5.43;5.03;;;19.10;58.60;;;;;;4978515;28;21234;-14
2022/03/26 09:29:30;;;;;;;5.25;4.85;;;19.10;58.30;;;;;;4979230;28;20089;-14
2022/03/26 09:31:55;;;;;;;5.30;4.90;;;19.10;58.60;;;;;;4979887;28;20046;-13
2022/03/26 09:34:21;;;;;;;6.18;5.68;;;19.20;58.60;;;;;;4977912;28;20582;-14
2022/03/26 09:36:47;;;;;;;5.57;5.18;;;19.20;58.60;;;;;;4978461;28;20087;-15
2022/03/26 09:39:13;;;;;;;5.55;5.15;;;19.20;58.30;;;;;;4976392;28;20070;-15
2022/03/26 09:41:39;;;;;;;5.50;4.97;;;19.20;58.10;;;;;;4980171;28;20054;-14
2022/03/26 09:44:04;;;;;;;5.03;4.60;;;19.30;58.40;;;;;;4978932;28;20050;-13
2022/03/26 09:46:30;;;;;;;5.13;4.72;;;19.30;58.30;;;;;;4970563;28;20055;-13
2022/03/26 09:48:56;;;;;;;5.88;5.15;;;19.30;58.20;;;;;;4975084;28;20069;-13
2022/03/26 09:51:22;;;;;;;5.00;4.65;;;19.30;58.10;;;;;;4978655;28;20597;-14
2022/03/26 09:53:50;;;;;;;5.65;5.22;;;19.30;58.00;;;;;;4978989;28;20740;-15
2022/03/26 09:56:16;;;;;;;5.22;4.78;;;19.30;58.00;;;;;;4977551;28;20054;-13
2022/03/26 09:58:42;;;;;;;5.38;4.82;;;19.40;58.00;;;;;;4978808;28;20058;-13
2022/03/26 10:01:07;;;;;;;4.95;4.55;;;19.40;58.00;;;;;;4977785;28;20054;-14
2022/03/26 10:03:35;;;;;;;4.88;4.47;;;19.40;58.50;;;;;;4980251;28;20057;-13
2022/03/26 10:06:04;;;;;;;5.40;4.90;;;19.50;57.90;;;;;;4976312;28;20070;-13
2022/03/26 10:08:37;;;;;;;5.20;4.55;;;19.50;57.80;;;;;;4980640;28;20054;-13
2022/03/26 10:11:03;;;;;;;4.90;4.50;;;19.60;58.20;;;;;;4979711;28;20042;-13
2022/03/26 10:13:44;;;;;;;5.18;4.78;;;19.60;57.80;;;;;;4978062;28;20145;-13
2022/03/26 10:16:13;;;;;;;5.05;4.60;;;19.60;57.50;;;;;;4977048;28;20057;-14
2022/03/26 10:18:42;;;;;;;4.55;4.35;;;19.60;57.60;;;;;;4980269;28;21331;-14
2022/03/26 10:21:12;;;;;;;4.70;4.32;;;19.60;57.60;;;;;;4980679;28;20069;-14
2022/03/26 10:23:45;;;;;;;5.00;4.60;;;19.70;57.50;;;;;;4980229;28;20054;-13
2022/03/26 10:26:12;;;;;;;5.35;4.85;;;19.70;57.60;;;;;;4977024;28;20050;-13
2022/03/26 10:28:40;;;;;;;4.63;4.35;;;19.70;57.50;;;;;;4981225;28;20085;-13
2022/03/26 10:34:20;;;;;;;6.38;5.88;;;19.80;58.60;;;;;;4979438;28;20134;-14
2022/03/26 10:36:48;;;;;;;6.72;6.20;;;19.90;59.40;;;;;;4978609;28;20043;-13
2022/03/26 10:39:20;;;;;;;5.65;5.28;;;19.90;59.30;;;;;;4978774;28;20062;-13
2022/03/26 10:41:47;;;;;;;8.80;6.32;;;19.90;58.80;;;;;;4978767;28;20061;-13
2022/03/26 10:44:16;;;;;;;6.35;5.65;;;19.90;59.70;;;;;;4981276;28;20062;-13
2022/03/26 10:46:52;;;;;;;5.78;5.20;;;20.00;58.90;;;;;;4981759;28;20046;-14
2022/03/26 10:49:27;;;;;;;7.38;5.45;;;20.00;58.60;;;;;;4982541;28;20145;-14
2022/03/26 10:51:53;;;;;;;6.28;5.60;;;20.00;59.60;;;;;;4984120;28;20050;-14
2022/03/26 10:54:19;;;;;;;6.25;5.68;;;20.00;59.00;;;;;;4981975;28;20055;-14
2022/03/26 10:56:44;;;;;;;5.82;5.43;;;20.10;59.00;;;;;;4982828;28;20069;-14
2022/03/26 10:59:10;;;;;;;5.03;4.57;;;20.10;58.50;;;;;;4981725;28;20543;-15
2022/03/26 11:01:36;;;;;;;5.43;4.93;;;20.10;59.30;;;;;;4981101;28;20073;-14
2022/03/26 11:04:02;;;;;;;5.70;5.03;;;20.00;59.40;;;;;;4982805;28;20054;-13
2022/03/26 11:06:28;;;;;;;5.70;5.20;;;20.10;59.60;;;;;;4980513;28;20529;-13
2022/03/26 11:09:00;;;;;;;5.32;4.82;;;20.10;59.20;;;;;;4983324;28;20050;-14
2022/03/26 11:11:27;;;;;;;5.10;4.70;;;20.10;58.80;;;;;;4982988;28;20042;-14
2022/03/26 11:13:54;;;;;;;5.72;4.78;;;20.20;58.30;;;;;;4983012;28;20050;-14
2022/03/26 11:16:57;;;;;;;6.28;4.68;;;20.20;57.90;;;;;;4979207;28;20159;-13
2022/03/26 11:19:58;;;;;;;5.30;4.80;;;20.20;57.90;;;;;;4981092;28;20157;-13
2022/03/26 11:22:30;;;;;;;6.15;4.88;;;20.20;58.00;;;;;;4974547;28;20436;-14
2022/03/26 11:25:11;;;;;;;5.93;4.38;;;20.20;57.90;;;;;;4980665;28;20057;-13
2022/03/26 11:27:53;;;;;;;6.30;5.00;;;20.20;57.50;;;;;;4981044;28;20058;-14
2022/03/26 11:30:38;;;;;;;6.53;5.35;;;20.30;57.20;;;;;;4981151;28;20517;-13
2022/03/26 11:33:11;;;;;;;5.63;5.13;;;20.30;57.10;;;;;;4982111;28;20127;-14
2022/03/26 11:35:55;;;;;;;6.78;5.97;;;20.30;56.80;;;;;;4980627;28;20057;-13
2022/03/26 11:38:23;;;;;;;8.73;5.88;;;20.30;57.50;;;;;;4980467;28;20180;-14
2022/03/26 11:41:08;;;;;;;9.45;7.25;;;20.30;57.00;;;;;;4983953;28;20182;-13
2022/03/26 11:43:43;;;;;;;6.45;5.85;;;20.40;56.90;;;;;;4981558;28;20050;-14
2022/03/26 11:52:27;;;;;;;7.25;6.60;;;20.30;57.90;;;;;;4634533;28;10000890;-13
2022/03/26 11:55:01;;;;;;;7.78;7.05;;;20.20;57.40;;;;;;4979498;28;20062;-14
2022/03/26 11:57:26;;;;;;;8.25;7.50;;;20.20;57.20;;;;;;4978424;28;20153;-13
2022/03/26 11:59:52;;;;;;;7.53;6.88;;;20.30;56.50;;;;;;4980452;28;20058;-14
2022/03/26 12:02:25;;;;;;;8.60;7.55;;;20.30;56.80;;;;;;4979040;28;20082;-13
2022/03/26 12:04:54;;;;;;;8.60;7.63;;;20.30;56.30;;;;;;4980881;28;20100;-13
2022/03/26 12:07:21;;;;;;;10.23;7.93;;;20.30;56.40;;;;;;4978510;28;20068;-14
2022/03/26 12:09:48;;;;;;;8.18;7.38;;;20.30;56.30;;;;;;4979097;28;20643;-13
2022/03/26 12:12:15;;;;;;;7.97;7.28;;;20.30;56.30;;;;;;4976936;28;20046;-15
2022/03/26 12:15:02;;;;;;;8.82;8.00;;;20.30;55.70;;;;;;4979172;28;20531;-14
2022/03/26 12:17:47;;;;;;;9.13;8.07;;;20.40;55.40;;;;;;4977147;28;20046;-14
2022/03/26 12:20:32;;;;;;;8.90;8.10;;;20.40;55.00;;;;;;4979212;28;20157;-13
2022/03/26 12:23:11;;;;;;;9.38;8.30;;;20.40;53.60;;;;;;4978110;28;20077;-14
2022/03/26 12:25:38;;;;;;;9.38;8.48;;;20.40;53.90;;;;;;4974642;28;20078;-13
2022/03/26 12:28:04;;;;;;;12.55;9.27;;;20.40;54.10;;;;;;4978863;28;20046;-14
2022/03/26 12:30:30;;;;;;;9.13;8.23;;;20.40;53.80;;;;;;4978113;28;20890;-14
2022/03/26 12:32:58;;;;;;;9.32;8.40;;;20.40;54.10;;;;;;4978957;28;20049;-13
2022/03/26 12:35:24;;;;;;;8.73;7.80;;;20.40;53.50;;;;;;4977158;28;20046;-12
2022/03/26 12:37:52;;;;;;;9.18;7.80;;;20.40;54.10;;;;;;4978505;28;20065;-14
2022/03/26 12:40:18;;;;;;;9.30;8.07;;;20.40;53.90;;;;;;4978164;28;20043;-14
2022/03/26 12:42:44;;;;;;;8.50;7.60;;;20.40;54.40;;;;;;4977498;28;20045;-14
2022/03/26 12:45:14;;;;;;;9.65;8.40;;;20.40;53.80;;;;;;4978795;28;20139;-14
2022/03/26 12:47:46;;;;;;;9.68;8.73;;;20.40;53.00;;;;;;4977021;28;20055;-13
2022/03/26 12:50:13;;;;;;;9.43;8.65;;;20.40;53.40;;;;;;4977015;28;20090;-14